createdAt,value
2022-10-22T00:00:43.855Z,13.88
2022-10-22T00:03:46.305Z,11.27
2022-10-22T00:06:48.506Z,15.95
2022-10-22T00:09:51.058Z,12.63
2022-10-22T00:12:53.242Z,10.48
2022-10-22T00:15:55.630Z,11.75
2022-10-22T00:18:57.755Z,8.25
2022-10-22T00:22:00.187Z,10.25
2022-10-22T00:25:02.247Z,16.02
2022-10-22T00:28:04.884Z,12.25
2022-10-22T00:31:07.195Z,10.93
2022-10-22T00:34:09.575Z,11.25
2022-10-22T00:37:11.679Z,15.98
2022-10-22T00:40:14.201Z,16.77
2022-10-22T00:43:18.841Z,9.55
2022-10-22T00:46:21.415Z,12.40
2022-10-22T00:49:23.578Z,9.77
2022-10-22T00:52:26.163Z,11.68
2022-10-22T00:55:29.657Z,10.52
2022-10-22T00:58:36.049Z,15.90
2022-10-22T01:01:38.143Z,12.25
2022-10-22T01:04:40.941Z,13.80
2022-10-22T01:07:47.879Z,15.70
2022-10-22T01:11:35.238Z,9.65
2022-10-22T01:14:58.261Z,15.77
2022-10-22T01:18:18.171Z,8.55
2022-10-22T01:21:43.893Z,13.02
2022-10-22T01:24:55.368Z,10.00
2022-10-22T01:28:06.080Z,12.10
2022-10-22T01:31:10.807Z,8.73
2022-10-22T01:34:17.015Z,16.52
2022-10-22T01:37:22.979Z,13.43
2022-10-22T01:40:27.025Z,10.93
2022-10-22T01:43:29.478Z,8.65
2022-10-22T01:46:32.432Z,12.10
2022-10-22T01:49:49.914Z,7.80
2022-10-22T01:53:02.855Z,10.88
2022-10-22T01:56:36.392Z,12.00
2022-10-22T01:59:53.600Z,10.10
2022-10-22T02:03:18.714Z,12.90
2022-10-22T02:06:26.083Z,9.05
2022-10-22T02:09:30.995Z,8.35
2022-10-22T02:12:35.040Z,6.95
2022-10-22T02:15:39.867Z,10.00
2022-10-22T02:18:46.623Z,14.68
2022-10-22T02:21:49.501Z,10.52
2022-10-22T02:24:52.031Z,11.25
2022-10-22T02:28:11.214Z,12.13
2022-10-22T02:31:23.819Z,15.77
2022-10-22T02:34:30.044Z,14.80
2022-10-22T02:37:32.708Z,13.57
2022-10-22T02:40:35.236Z,12.88
2022-10-22T02:43:48.617Z,14.82
2022-10-22T02:46:51.093Z,13.13
2022-10-22T02:49:53.474Z,12.82
2022-10-22T02:52:55.579Z,10.57
2022-10-22T02:55:58.590Z,14.75
2022-10-22T02:59:03.035Z,9.90
2022-10-22T03:02:05.414Z,10.40
2022-10-22T03:05:08.114Z,10.30
2022-10-22T03:08:10.505Z,8.57
2022-10-22T03:11:12.619Z,13.43
2022-10-22T03:14:15.042Z,10.63
2022-10-22T03:17:17.200Z,12.15
2022-10-22T03:20:19.608Z,21.92
2022-10-22T03:23:21.700Z,16.00
2022-10-22T03:26:25.175Z,13.05
2022-10-22T03:29:28.237Z,10.13
2022-10-22T03:32:30.648Z,14.45
2022-10-22T03:35:38.321Z,11.10
2022-10-22T03:38:41.236Z,13.53
2022-10-22T03:41:44.376Z,15.90
2022-10-22T03:44:47.098Z,11.15
2022-10-22T03:47:49.174Z,17.02
2022-10-22T03:50:51.579Z,17.75
2022-10-22T03:53:54.179Z,12.15
2022-10-22T03:56:56.583Z,14.98
2022-10-22T03:59:58.669Z,14.90
2022-10-22T04:03:01.024Z,10.57
2022-10-22T04:06:06.191Z,19.67
2022-10-22T04:09:08.466Z,10.48
2022-10-22T04:12:10.968Z,12.37
2022-10-22T04:15:13.070Z,14.50
2022-10-22T04:18:15.468Z,11.68
2022-10-22T04:21:19.448Z,10.95
2022-10-22T04:24:21.815Z,17.23
2022-10-22T04:27:23.951Z,11.40
2022-10-22T04:30:27.057Z,15.25
2022-10-22T04:33:29.175Z,12.23
2022-10-22T04:36:31.593Z,13.62
2022-10-22T04:39:33.698Z,9.68
2022-10-22T04:42:36.078Z,13.13
2022-10-22T04:45:38.194Z,15.32
2022-10-22T04:48:42.193Z,16.52
2022-10-22T04:51:44.279Z,14.00
2022-10-22T04:54:46.927Z,12.60
2022-10-22T04:57:49.078Z,10.80
2022-10-22T05:00:51.528Z,13.48
2022-10-22T05:03:55.854Z,12.70
2022-10-22T05:06:58.287Z,12.13
2022-10-22T05:10:02.297Z,11.02
2022-10-22T05:13:04.703Z,11.15
2022-10-22T05:16:07.003Z,15.10
2022-10-22T05:19:17.320Z,15.93
2022-10-22T05:22:19.465Z,10.38
2022-10-22T05:25:21.850Z,12.50
2022-10-22T05:28:24.023Z,11.88
2022-10-22T05:31:28.738Z,9.73
2022-10-22T05:34:30.841Z,14.98
2022-10-22T05:37:33.242Z,12.00
2022-10-22T05:40:35.342Z,15.52
2022-10-22T05:43:38.164Z,15.65
2022-10-22T05:46:40.772Z,14.43
2022-10-22T05:49:43.169Z,13.68
2022-10-22T05:52:45.277Z,16.33
2022-10-22T05:55:47.739Z,12.73
2022-10-22T05:58:50.236Z,22.85
2022-10-22T06:01:52.706Z,22.17
2022-10-22T06:04:55.177Z,17.40
2022-10-22T06:07:57.808Z,14.20
2022-10-22T06:11:00.359Z,15.02
2022-10-22T06:14:03.187Z,12.93
2022-10-22T06:17:05.577Z,14.87
2022-10-22T06:20:08.536Z,10.95
2022-10-22T06:23:11.232Z,15.70
2022-10-22T06:26:13.382Z,12.25
2022-10-22T06:29:15.824Z,11.25
2022-10-22T06:32:17.907Z,12.45
2022-10-22T06:35:20.320Z,35.88
2022-10-22T06:38:22.456Z,17.33
2022-10-22T06:41:28.589Z,13.70
2022-10-22T06:44:32.774Z,13.18
2022-10-22T06:47:35.165Z,11.85
2022-10-22T06:50:37.353Z,10.15
2022-10-22T06:53:40.461Z,16.37
2022-10-22T06:56:42.753Z,10.45
2022-10-22T06:59:46.472Z,15.98
2022-10-22T07:02:57.605Z,13.30
2022-10-22T07:06:07.447Z,19.75
2022-10-22T07:09:09.613Z,13.63
2022-10-22T07:12:12.537Z,14.05
2022-10-22T07:15:14.815Z,14.25
2022-10-22T07:18:17.311Z,13.88
2022-10-22T07:21:20.472Z,19.15
2022-10-22T07:24:22.943Z,17.65
2022-10-22T07:27:25.083Z,14.82
2022-10-22T07:30:27.554Z,15.02
2022-10-22T07:33:29.687Z,18.30
2022-10-22T07:36:32.280Z,13.38
2022-10-22T07:39:34.543Z,17.75
2022-10-22T07:42:36.942Z,18.00
2022-10-22T07:45:39.192Z,15.20
2022-10-22T07:48:41.923Z,17.20
2022-10-22T07:51:44.050Z,18.35
2022-10-22T07:54:46.485Z,21.92
2022-10-22T07:57:48.578Z,22.33
2022-10-22T08:00:54.884Z,11.35
2022-10-22T08:03:57.315Z,20.37
2022-10-22T08:07:00.594Z,17.27
2022-10-22T08:10:03.539Z,15.95
2022-10-22T08:13:06.723Z,18.30
2022-10-22T08:16:09.190Z,14.77
2022-10-22T08:19:11.448Z,20.80
2022-10-22T08:22:13.977Z,19.87
2022-10-22T08:25:18.042Z,20.65
2022-10-22T08:28:22.069Z,16.00
2022-10-22T08:31:24.581Z,19.60
2022-10-22T08:34:27.055Z,19.83
2022-10-22T08:37:29.200Z,16.77
2022-10-22T08:40:39.934Z,23.42
2022-10-22T08:44:10.853Z,18.35
2022-10-22T08:47:44.360Z,20.48
2022-10-22T08:50:50.038Z,18.42
2022-10-22T08:54:30.145Z,16.12
2022-10-22T08:58:21.878Z,16.58
2022-10-22T09:01:34.237Z,17.40
2022-10-22T09:05:02.708Z,22.60
2022-10-22T09:08:08.836Z,24.77
2022-10-22T09:11:10.945Z,20.20
2022-10-22T09:14:19.704Z,22.77
2022-10-22T09:17:38.772Z,23.92
2022-10-22T09:20:54.705Z,24.98
2022-10-22T09:24:19.445Z,21.67
2022-10-22T09:27:28.335Z,18.92
2022-10-22T09:33:34.407Z,26.90
2022-10-22T09:36:37.940Z,17.87
2022-10-22T09:39:44.833Z,25.73
2022-10-22T09:42:47.345Z,22.05
2022-10-22T09:45:58.024Z,28.08
2022-10-22T09:49:17.672Z,34.55
2022-10-22T09:52:30.401Z,30.20
2022-10-22T09:55:32.608Z,26.48
2022-10-22T09:58:43.889Z,23.02
2022-10-22T10:01:46.065Z,27.87
2022-10-22T10:04:52.808Z,24.20
2022-10-22T10:07:55.017Z,26.60
2022-10-22T10:11:37.274Z,27.45
2022-10-22T10:15:01.985Z,23.35
2022-10-22T10:18:33.051Z,28.73
2022-10-22T10:21:41.042Z,24.73
2022-10-22T10:24:58.779Z,23.02
2022-10-22T10:28:06.695Z,21.25
2022-10-22T10:31:32.474Z,21.02
2022-10-22T10:34:54.307Z,30.50
2022-10-22T10:38:14.683Z,18.25
2022-10-22T10:41:39.870Z,19.10
2022-10-22T10:45:03.519Z,23.23
2022-10-22T10:48:33.480Z,25.02
2022-10-22T10:51:53.316Z,22.02
2022-10-22T10:55:13.814Z,30.02
2022-10-22T10:58:25.682Z,29.83
2022-10-22T11:01:51.860Z,20.70
2022-10-22T11:05:28.630Z,21.02
2022-10-22T11:08:35.934Z,24.92
2022-10-22T11:11:50.349Z,23.77
2022-10-22T11:15:13.453Z,26.55
2022-10-22T11:18:27.515Z,28.17
2022-10-22T11:21:39.788Z,31.92
2022-10-22T11:24:53.089Z,35.53
2022-10-22T11:28:09.242Z,25.80
2022-10-22T11:31:16.838Z,26.25
2022-10-22T11:34:33.792Z,33.65
2022-10-22T11:37:39.104Z,31.73
2022-10-22T11:40:54.700Z,30.45
2022-10-22T11:43:57.706Z,30.42
2022-10-22T11:47:15.589Z,23.80
2022-10-22T11:50:18.065Z,30.13
2022-10-22T11:53:30.890Z,25.62
2022-10-22T11:56:38.886Z,23.87
2022-10-22T11:59:51.528Z,21.95
2022-10-22T12:03:05.943Z,25.45
2022-10-22T12:06:12.059Z,28.92
2022-10-22T12:09:14.315Z,23.52
2022-10-22T12:12:21.018Z,23.30
2022-10-22T12:15:27.000Z,22.67
2022-10-22T12:18:41.383Z,27.30
2022-10-22T12:21:48.714Z,33.05
2022-10-22T12:24:55.398Z,24.65
2022-10-22T12:28:01.034Z,23.70
2022-10-22T12:31:03.551Z,21.37
2022-10-22T12:34:06.426Z,27.17
2022-10-22T12:37:11.711Z,19.33
2022-10-22T12:40:21.642Z,24.70
2022-10-22T12:43:29.974Z,25.42
2022-10-22T12:46:34.731Z,20.70
2022-10-22T12:49:40.791Z,19.12
2022-10-22T12:52:43.442Z,17.95
2022-10-22T12:55:51.990Z,24.83
2022-10-22T12:59:12.683Z,29.45
2022-10-22T13:02:21.927Z,27.67
2022-10-22T13:05:27.610Z,23.20
2022-10-22T13:08:30.107Z,20.33
2022-10-22T13:11:34.945Z,22.15
2022-10-22T13:14:38.619Z,28.58
2022-10-22T13:17:42.334Z,25.10
2022-10-22T13:21:02.519Z,30.00
2022-10-22T13:24:24.938Z,27.08
2022-10-22T13:27:28.810Z,27.15
2022-10-22T13:30:36.376Z,24.73
2022-10-22T13:33:41.903Z,31.17
2022-10-22T13:36:44.052Z,20.33
2022-10-22T13:39:46.474Z,23.05
2022-10-22T13:42:48.614Z,21.27
2022-10-22T13:46:00.541Z,23.77
2022-10-22T13:49:04.350Z,23.58
2022-10-22T13:52:06.843Z,35.00
2022-10-22T13:55:21.699Z,29.00
2022-10-22T13:58:25.159Z,21.05
2022-10-22T14:01:27.961Z,25.00
2022-10-22T14:04:30.366Z,27.85
2022-10-22T14:07:33.420Z,20.33
2022-10-22T14:10:35.873Z,26.95
2022-10-22T14:13:38.398Z,22.23
2022-10-22T14:16:41.073Z,25.27
2022-10-22T14:19:45.697Z,21.95
2022-10-22T14:22:49.789Z,20.20
2022-10-22T14:25:52.223Z,23.10
2022-10-22T14:29:11.521Z,21.65
2022-10-22T14:32:16.811Z,36.20
2022-10-22T14:35:22.248Z,28.30
2022-10-22T14:38:24.393Z,25.98
2022-10-22T14:41:29.004Z,23.25
2022-10-22T14:44:31.168Z,21.40
2022-10-22T14:47:33.641Z,31.02
2022-10-22T14:50:35.764Z,22.83
2022-10-22T14:53:38.200Z,24.17
2022-10-22T14:56:40.444Z,24.40
2022-10-22T14:59:42.949Z,25.05
2022-10-22T15:02:45.963Z,24.73
2022-10-22T15:05:53.666Z,27.48
2022-10-22T15:08:55.811Z,26.48
2022-10-22T15:11:58.259Z,20.15
2022-10-22T15:15:00.408Z,22.33
2022-10-22T15:18:02.914Z,22.75
2022-10-22T15:21:08.408Z,30.05
2022-10-22T15:24:12.918Z,19.50
2022-10-22T15:27:15.794Z,30.15
2022-10-22T15:30:18.274Z,25.65
2022-10-22T15:33:20.463Z,20.23
2022-10-22T15:36:22.898Z,22.20
2022-10-22T15:39:25.702Z,22.23
2022-10-22T15:42:28.194Z,20.52
2022-10-22T15:45:30.304Z,18.25
2022-10-22T15:48:33.587Z,33.08
2022-10-22T15:51:35.774Z,23.85
2022-10-22T15:54:38.241Z,20.50
2022-10-22T15:57:40.815Z,21.25
2022-10-22T16:00:43.643Z,29.73
2022-10-22T16:03:46.170Z,28.92
2022-10-22T16:06:49.777Z,22.67
2022-10-22T16:09:56.613Z,27.45
2022-10-22T16:12:58.819Z,23.48
2022-10-22T16:16:05.963Z,20.52
2022-10-22T16:19:10.456Z,18.35
2022-10-22T16:22:13.830Z,20.50
2022-10-22T16:25:16.022Z,21.12
2022-10-22T16:28:18.856Z,23.92
2022-10-22T16:31:21.035Z,22.87
2022-10-22T16:34:25.820Z,29.12
2022-10-22T16:37:28.120Z,31.70
2022-10-22T16:40:30.596Z,23.65
2022-10-22T16:43:32.792Z,22.65
2022-10-22T16:46:38.295Z,24.73
2022-10-22T16:49:40.454Z,36.30
2022-10-22T16:52:43.008Z,28.92
2022-10-22T16:55:45.199Z,32.50
2022-10-22T16:58:57.863Z,29.23
2022-10-22T17:02:00.175Z,26.65
2022-10-22T17:05:02.934Z,29.77
2022-10-22T17:08:07.629Z,31.52
2022-10-22T17:11:12.681Z,38.03
2022-10-22T17:14:14.813Z,32.35
2022-10-22T17:17:17.243Z,25.02
2022-10-22T17:20:20.190Z,28.90
2022-10-22T17:23:22.654Z,27.27
2022-10-22T17:26:26.831Z,29.35
2022-10-22T17:29:29.528Z,26.87
2022-10-22T17:32:32.143Z,28.20
2022-10-22T17:35:35.854Z,26.62
2022-10-22T17:38:38.941Z,30.10
2022-10-22T17:41:41.390Z,29.75
2022-10-22T17:44:43.484Z,24.40
2022-10-22T17:47:45.934Z,27.25
2022-10-22T17:50:50.570Z,24.05
2022-10-22T17:53:54.724Z,23.12
2022-10-22T17:56:56.850Z,20.98
2022-10-22T17:59:59.314Z,27.00
2022-10-22T18:03:01.601Z,27.55
2022-10-22T18:06:07.295Z,29.30
2022-10-22T18:09:13.214Z,24.52
2022-10-22T18:12:18.062Z,29.20
2022-10-22T18:15:20.264Z,28.67
2022-10-22T18:18:23.846Z,26.98
2022-10-22T18:21:28.236Z,28.20
2022-10-22T18:24:30.693Z,25.00
2022-10-22T18:27:33.713Z,29.98
2022-10-22T18:30:40.765Z,29.05
2022-10-22T18:33:42.988Z,29.20
2022-10-22T18:36:45.479Z,32.53
2022-10-22T18:39:47.599Z,26.20
2022-10-22T18:42:50.070Z,33.08
2022-10-22T18:45:52.251Z,32.60
2022-10-22T18:48:58.740Z,28.58
2022-10-22T18:52:01.118Z,31.80
2022-10-22T18:55:03.932Z,28.20
2022-10-22T18:58:06.467Z,27.13
2022-10-22T19:01:20.626Z,30.73
2022-10-22T19:04:23.012Z,32.05
2022-10-22T19:07:25.533Z,24.58
2022-10-22T19:10:27.690Z,28.42
2022-10-22T19:13:30.149Z,29.60
2022-10-22T19:16:34.719Z,29.27
2022-10-22T19:19:37.133Z,29.02
2022-10-22T19:22:39.309Z,30.02
2022-10-22T19:25:41.806Z,30.98
2022-10-22T19:28:45.211Z,30.02
2022-10-22T19:31:50.559Z,27.42
2022-10-22T19:34:52.775Z,36.40
2022-10-22T19:37:55.234Z,29.60
2022-10-22T19:40:57.445Z,29.40
2022-10-22T19:44:00.766Z,31.85
2022-10-22T19:47:02.911Z,32.00
2022-10-22T19:50:05.885Z,29.58
2022-10-22T19:53:08.000Z,29.60
2022-10-22T19:56:11.802Z,30.55
2022-10-22T19:59:15.174Z,32.53
2022-10-22T20:02:18.602Z,28.90
2022-10-22T20:05:21.011Z,27.62
2022-10-22T20:08:23.163Z,31.42
2022-10-22T20:11:30.085Z,31.12
2022-10-22T20:14:32.979Z,30.45
2022-10-22T20:17:35.479Z,26.55
2022-10-22T20:20:37.836Z,29.45
2022-10-22T20:23:40.432Z,41.25
2022-10-22T20:26:45.414Z,29.95
2022-10-22T20:29:49.942Z,35.72
2022-10-22T20:32:52.038Z,28.38
2022-10-22T20:36:02.943Z,30.00
2022-10-22T20:39:08.161Z,36.78
2022-10-22T20:42:10.773Z,30.62
2022-10-22T20:45:12.904Z,33.00
2022-10-22T20:48:15.428Z,27.90
2022-10-22T20:51:17.584Z,31.67
2022-10-22T20:54:20.166Z,34.72
2022-10-22T20:57:22.375Z,33.03
2022-10-22T21:00:24.868Z,31.48
2022-10-22T21:03:27.085Z,29.15
2022-10-22T21:06:29.948Z,29.25
2022-10-22T21:09:34.183Z,30.60
2022-10-22T21:12:41.652Z,34.03
2022-10-22T21:15:43.984Z,32.78
2022-10-22T21:18:47.187Z,30.10
2022-10-22T21:21:49.751Z,28.75
2022-10-22T21:24:52.210Z,27.15
2022-10-22T21:27:54.362Z,29.15
2022-10-22T21:30:56.779Z,32.28
2022-10-22T21:33:58.931Z,27.23
2022-10-22T21:37:01.354Z,27.42
2022-10-22T21:40:04.363Z,36.22
2022-10-22T21:43:06.819Z,28.60
2022-10-22T21:46:14.426Z,32.22
2022-10-22T21:49:16.927Z,28.93
2022-10-22T21:52:19.223Z,25.62
2022-10-22T21:55:21.733Z,27.62
2022-10-22T21:58:23.930Z,26.33
2022-10-22T22:01:26.951Z,34.30
2022-10-22T22:04:29.492Z,31.73
2022-10-22T22:07:34.796Z,25.48
2022-10-22T22:10:37.350Z,31.40
2022-10-22T22:13:39.968Z,31.60
2022-10-22T22:16:42.413Z,27.90
2022-10-22T22:19:44.563Z,30.15
2022-10-22T22:22:47.011Z,30.88
2022-10-22T22:25:49.279Z,35.58
2022-10-22T22:28:51.753Z,37.08
2022-10-22T22:31:53.947Z,33.92
2022-10-22T22:34:56.464Z,29.48
2022-10-22T22:37:58.958Z,35.40
2022-10-22T22:41:01.816Z,31.23
2022-10-22T22:44:04.594Z,30.88
2022-10-22T22:47:07.085Z,31.87
2022-10-22T22:50:09.307Z,30.10
2022-10-22T22:53:11.745Z,34.45
2022-10-22T22:56:18.072Z,29.77
2022-10-22T22:59:21.927Z,25.40
2022-10-22T23:02:24.120Z,27.92
2022-10-22T23:05:26.652Z,29.95
2022-10-22T23:08:28.790Z,30.77
2022-10-22T23:11:31.428Z,29.33
2022-10-22T23:14:33.570Z,28.35
2022-10-22T23:20:38.484Z,28.27
2022-10-22T23:23:50.380Z,31.20
2022-10-22T23:26:54.430Z,27.05
2022-10-22T23:29:56.899Z,23.65
2022-10-22T23:32:59.124Z,26.90
2022-10-22T23:36:02.174Z,25.70
2022-10-22T23:39:09.844Z,29.10
2022-10-22T23:42:12.490Z,25.97
2022-10-22T23:45:14.846Z,31.42
2022-10-22T23:48:17.609Z,37.13
2022-10-22T23:51:20.683Z,26.67
2022-10-22T23:54:23.425Z,31.02
2022-10-22T23:57:25.663Z,26.67
